createdAt,value
2018-12-07T00:01:14.308Z,68.16
2018-12-07T00:03:42.473Z,68.03
2018-12-07T00:06:10.872Z,67.96
2018-12-07T00:08:39.021Z,67.97
2018-12-07T00:11:07.215Z,68.11
2018-12-07T00:13:35.477Z,67.91
2018-12-07T00:16:03.764Z,68.33
2018-12-07T00:18:31.916Z,68.47
2018-12-07T00:21:00.145Z,68.41
2018-12-07T00:23:28.297Z,68.01
2018-12-07T00:25:56.557Z,68.23
2018-12-07T00:28:24.861Z,68.10
2018-12-07T00:30:53.010Z,68.04
2018-12-07T00:33:21.197Z,67.68
2018-12-07T00:35:49.356Z,67.97
2018-12-07T00:38:17.517Z,67.98
2018-12-07T00:40:45.820Z,68.08
2018-12-07T00:43:13.981Z,67.91
2018-12-07T00:45:42.120Z,67.80
2018-12-07T00:48:10.349Z,67.57
2018-12-07T00:50:38.629Z,68.23
2018-12-07T00:53:06.804Z,68.11
2018-12-07T00:55:38.097Z,67.65
2018-12-07T00:58:06.545Z,67.99
2018-12-07T01:00:34.702Z,68.08
2018-12-07T01:03:02.986Z,67.74
2018-12-07T01:05:31.253Z,68.15
2018-12-07T01:07:59.448Z,67.67
2018-12-07T01:10:27.595Z,67.70
2018-12-07T01:12:55.784Z,67.69
2018-12-07T01:15:24.057Z,68.18
2018-12-07T01:17:52.281Z,67.65
2018-12-07T01:20:20.508Z,67.56
2018-12-07T01:22:48.652Z,67.40
2018-12-07T01:25:16.893Z,67.38
2018-12-07T01:27:45.040Z,67.68
2018-12-07T01:30:13.370Z,67.90
2018-12-07T01:32:41.593Z,67.83
2018-12-07T01:35:09.977Z,68.00
2018-12-07T01:37:38.253Z,67.84
2018-12-07T01:40:06.842Z,67.36
2018-12-07T01:42:35.212Z,67.35
2018-12-07T01:45:03.601Z,67.82
2018-12-07T01:47:33.733Z,67.30
2018-12-07T01:50:02.100Z,67.10
2018-12-07T01:52:30.361Z,67.16
2018-12-07T01:54:58.744Z,67.34
2018-12-07T01:57:26.909Z,67.06
2018-12-07T01:59:55.068Z,67.04
2018-12-07T02:02:23.265Z,67.18
2018-12-07T02:04:51.424Z,67.62
2018-12-07T02:07:31.497Z,67.32
2018-12-07T02:09:59.912Z,67.67
2018-12-07T02:12:28.676Z,67.34
2018-12-07T02:14:56.833Z,67.37
2018-12-07T02:17:24.980Z,67.59
2018-12-07T02:19:53.399Z,67.06
2018-12-07T02:22:21.565Z,67.37
2018-12-07T02:24:49.853Z,67.54
2018-12-07T02:27:18.232Z,67.65
2018-12-07T02:29:46.429Z,67.71
2018-12-07T02:32:14.577Z,67.23
2018-12-07T02:34:42.750Z,67.16
2018-12-07T02:37:10.928Z,67.57
2018-12-07T02:39:39.216Z,67.62
2018-12-07T02:42:07.601Z,67.07
2018-12-07T02:44:35.765Z,66.93
2018-12-07T02:47:04.194Z,67.45
2018-12-07T02:49:32.406Z,67.56
2018-12-07T02:52:00.596Z,67.37
2018-12-07T02:54:28.855Z,67.36
2018-12-07T02:56:57.169Z,67.03
2018-12-07T02:59:25.320Z,67.11
2018-12-07T03:01:53.472Z,67.23
2018-12-07T03:04:21.656Z,66.70
2018-12-07T03:06:49.973Z,66.77
2018-12-07T03:09:18.293Z,67.35
2018-12-07T03:11:46.445Z,67.06
2018-12-07T03:14:14.673Z,67.35
2018-12-07T03:16:42.853Z,66.87
2018-12-07T03:19:11.120Z,67.23
2018-12-07T03:21:39.309Z,66.83
2018-12-07T03:24:07.581Z,67.16
2018-12-07T03:26:35.757Z,67.25
2018-12-07T03:29:04.140Z,67.34
2018-12-07T03:31:32.313Z,66.88
2018-12-07T03:34:02.348Z,66.85
2018-12-07T03:36:30.724Z,66.86
2018-12-07T03:38:58.865Z,66.83
2018-12-07T03:41:27.168Z,67.36
2018-12-07T03:43:55.321Z,66.83
2018-12-07T03:46:23.465Z,66.82
2018-12-07T03:48:51.675Z,67.20
2018-12-07T03:51:19.990Z,66.58
2018-12-07T03:53:48.144Z,66.68
2018-12-07T03:56:16.420Z,67.07
2018-12-07T03:58:44.588Z,66.95
2018-12-07T04:01:12.979Z,66.67
2018-12-07T04:03:41.828Z,66.69
2018-12-07T04:06:10.454Z,67.33
2018-12-07T04:08:38.625Z,66.77
2018-12-07T04:11:06.893Z,66.72
2018-12-07T04:13:35.180Z,66.73
2018-12-07T04:16:03.661Z,66.81
2018-12-07T04:18:31.832Z,67.42
2018-12-07T04:21:00.120Z,67.03
2018-12-07T04:23:28.529Z,67.01
2018-12-07T04:25:56.754Z,67.09
2018-12-07T04:28:24.949Z,67.78
2018-12-07T04:30:53.095Z,67.43
2018-12-07T04:33:21.254Z,67.65
2018-12-07T04:35:49.461Z,67.45
2018-12-07T04:38:17.682Z,67.79
2018-12-07T04:40:45.823Z,67.25
2018-12-07T04:43:13.981Z,67.51
2018-12-07T04:45:42.158Z,67.55
2018-12-07T04:48:10.349Z,67.54
2018-12-07T04:50:38.733Z,66.88
2018-12-07T04:53:07.008Z,66.80
2018-12-07T04:55:35.477Z,67.21
2018-12-07T04:58:03.865Z,66.56
2018-12-07T05:00:32.165Z,67.05
2018-12-07T05:03:00.402Z,66.99
2018-12-07T05:05:28.812Z,66.62
2018-12-07T05:07:56.957Z,66.88
2018-12-07T05:10:25.162Z,66.88
2018-12-07T05:12:53.314Z,66.83
2018-12-07T05:15:21.709Z,67.28
2018-12-07T05:17:49.865Z,66.82
2018-12-07T05:20:18.056Z,67.27
2018-12-07T05:22:46.216Z,66.76
2018-12-07T05:25:14.406Z,66.92
2018-12-07T05:27:42.597Z,67.06
2018-12-07T05:30:10.969Z,66.76
2018-12-07T05:32:39.109Z,66.88
2018-12-07T05:35:07.444Z,67.15
2018-12-07T05:37:35.585Z,66.64
2018-12-07T05:40:04.078Z,67.13
2018-12-07T05:42:32.229Z,66.62
2018-12-07T05:45:00.382Z,66.58
2018-12-07T05:47:28.697Z,66.83
2018-12-07T05:49:56.864Z,66.12
2018-12-07T05:52:25.128Z,66.01
2018-12-07T05:54:53.334Z,66.33
2018-12-07T05:57:21.598Z,65.89
2018-12-07T05:59:49.845Z,65.57
2018-12-07T06:02:18.121Z,65.46
2018-12-07T06:04:46.354Z,65.52
2018-12-07T06:07:14.556Z,65.44
2018-12-07T06:09:42.701Z,65.39
2018-12-07T06:12:10.909Z,65.24
2018-12-07T06:14:39.297Z,65.52
2018-12-07T06:17:07.529Z,65.48
2018-12-07T06:19:35.752Z,65.24
2018-12-07T06:22:04.136Z,64.74
2018-12-07T06:24:32.307Z,65.17
2018-12-07T06:27:00.549Z,65.17
2018-12-07T06:29:28.734Z,64.63
2018-12-07T06:31:56.964Z,64.77
2018-12-07T06:34:25.112Z,64.78
2018-12-07T06:36:53.368Z,64.47
2018-12-07T06:39:21.599Z,64.48
2018-12-07T06:41:49.937Z,64.32
2018-12-07T06:44:18.077Z,64.04
2018-12-07T06:46:46.302Z,63.70
2018-12-07T06:49:14.791Z,64.11
2018-12-07T06:51:44.056Z,64.18
2018-12-07T06:54:12.296Z,63.64
2018-12-07T06:56:40.641Z,63.95
2018-12-07T06:59:08.906Z,63.91
2018-12-07T07:01:37.301Z,63.98
2018-12-07T07:04:05.448Z,63.34
2018-12-07T07:06:33.593Z,63.27
2018-12-07T07:09:01.748Z,63.21
2018-12-07T07:11:29.905Z,62.95
2018-12-07T07:13:58.057Z,63.52
2018-12-07T07:16:26.212Z,63.49
2018-12-07T07:18:54.661Z,63.29
2018-12-07T07:21:22.878Z,63.05
2018-12-07T07:23:51.128Z,62.93
2018-12-07T07:26:19.395Z,63.27
2018-12-07T07:28:47.724Z,62.66
2018-12-07T07:31:15.895Z,62.91
2018-12-07T07:33:44.189Z,62.98
2018-12-07T07:36:12.432Z,62.67
2018-12-07T07:38:40.619Z,62.72
2018-12-07T07:41:09.003Z,62.05
2018-12-07T07:43:37.170Z,62.68
2018-12-07T07:46:05.440Z,62.17
2018-12-07T07:48:33.738Z,62.54
2018-12-07T07:51:01.976Z,62.13
2018-12-07T07:53:30.209Z,62.46
2018-12-07T07:55:58.352Z,62.46
2018-12-07T07:58:26.513Z,62.54
2018-12-07T08:00:54.693Z,62.05
2018-12-07T08:03:22.873Z,62.45
2018-12-07T08:05:51.037Z,62.00
2018-12-07T08:08:19.369Z,62.47
2018-12-07T08:10:47.786Z,61.89
2018-12-07T08:13:16.196Z,62.12
2018-12-07T08:15:44.593Z,61.81
2018-12-07T08:18:12.741Z,62.21
2018-12-07T08:20:41.017Z,61.58
2018-12-07T08:23:14.748Z,62.08
2018-12-07T08:25:39.417Z,61.66
2018-12-07T08:28:07.652Z,62.21
2018-12-07T08:30:36.808Z,61.71
2018-12-07T08:33:05.060Z,62.24
2018-12-07T08:35:33.253Z,62.26
2018-12-07T08:38:01.491Z,62.04
2018-12-07T08:40:29.851Z,62.01
2018-12-07T08:42:58.179Z,61.38
2018-12-07T08:45:26.597Z,62.16
2018-12-07T08:47:54.821Z,62.20
2018-12-07T08:50:23.229Z,62.17
2018-12-07T08:52:51.585Z,62.03
2018-12-07T08:55:19.768Z,61.76
2018-12-07T08:57:47.918Z,61.30
2018-12-07T09:00:16.341Z,61.49
2018-12-07T09:02:44.573Z,60.98
2018-12-07T09:05:12.833Z,61.51
2018-12-07T09:07:40.980Z,61.70
2018-12-07T09:10:09.300Z,61.24
2018-12-07T09:12:37.453Z,61.93
2018-12-07T09:15:06.124Z,62.02
2018-12-07T09:17:34.444Z,61.51
2018-12-07T09:20:02.665Z,61.69
2018-12-07T09:22:30.987Z,60.98
2018-12-07T09:24:59.129Z,61.79
2018-12-07T09:27:27.289Z,60.84
2018-12-07T09:29:55.493Z,61.24
2018-12-07T09:32:23.651Z,60.93
2018-12-07T09:34:52.908Z,60.54
2018-12-07T09:37:21.149Z,60.58
2018-12-07T09:39:49.377Z,60.95
2018-12-07T09:42:17.609Z,60.72
2018-12-07T09:44:45.750Z,61.06
2018-12-07T09:47:13.906Z,60.56
2018-12-07T09:49:42.056Z,60.32
2018-12-07T09:52:10.207Z,60.40
2018-12-07T09:54:38.346Z,61.18
2018-12-07T09:57:06.529Z,60.41
2018-12-07T09:59:34.679Z,61.23
2018-12-07T10:02:02.917Z,60.90
2018-12-07T10:04:31.272Z,61.14
2018-12-07T10:06:59.818Z,60.74
2018-12-07T10:09:28.081Z,60.97
2018-12-07T10:11:56.245Z,60.72
2018-12-07T10:14:24.388Z,60.23
2018-12-07T10:16:52.521Z,59.92
2018-12-07T10:19:20.797Z,59.75
2018-12-07T10:21:48.954Z,59.54
2018-12-07T10:24:17.174Z,59.58
2018-12-07T10:26:45.421Z,59.91
2018-12-07T10:29:13.572Z,58.85
2018-12-07T10:31:41.769Z,58.78
2018-12-07T10:34:09.973Z,58.82
2018-12-07T10:36:38.116Z,58.23
2018-12-07T10:39:06.950Z,58.37
2018-12-07T10:41:35.101Z,57.36
2018-12-07T10:44:03.461Z,57.99
2018-12-07T10:46:31.604Z,57.53
2018-12-07T10:48:59.842Z,58.07
2018-12-07T10:51:28.073Z,57.52
2018-12-07T10:53:56.224Z,57.54
2018-12-07T10:56:24.529Z,57.35
2018-12-07T10:58:52.716Z,57.46
2018-12-07T11:01:26.217Z,57.43
2018-12-07T11:03:59.717Z,57.66
2018-12-07T11:06:33.174Z,56.98
2018-12-07T11:09:06.421Z,57.31
2018-12-07T11:11:44.733Z,57.75
2018-12-07T11:14:13.369Z,57.81
2018-12-07T11:16:47.017Z,57.70
2018-12-07T11:19:20.368Z,57.74
2018-12-07T11:21:53.805Z,57.93
2018-12-07T11:24:27.752Z,57.35
2018-12-07T11:27:01.193Z,57.34
2018-12-07T11:29:34.825Z,57.32
2018-12-07T11:32:08.245Z,56.97
2018-12-07T11:34:46.331Z,57.28
2018-12-07T11:37:15.249Z,57.33
2018-12-07T11:39:43.489Z,57.09
2018-12-07T11:42:11.716Z,56.67
2018-12-07T11:44:39.875Z,56.91
2018-12-07T11:47:08.012Z,56.99
2018-12-07T11:49:36.248Z,56.62
2018-12-07T11:52:04.473Z,56.87
2018-12-07T11:54:32.624Z,57.35
2018-12-07T11:57:00.849Z,57.59
2018-12-07T11:59:29.004Z,57.11
2018-12-07T12:01:57.146Z,56.98
2018-12-07T12:04:25.312Z,57.34
2018-12-07T12:06:53.452Z,57.22
2018-12-07T12:09:21.677Z,56.74
2018-12-07T12:11:49.898Z,56.71
2018-12-07T12:14:18.128Z,57.02
2018-12-07T12:16:46.277Z,56.33
2018-12-07T12:19:14.414Z,56.41
2018-12-07T12:21:42.569Z,56.21
2018-12-07T12:24:10.704Z,55.92
2018-12-07T12:26:38.922Z,55.65
2018-12-07T12:29:07.188Z,56.35
2018-12-07T12:31:35.345Z,56.68
2018-12-07T12:34:03.525Z,56.60
2018-12-07T12:36:31.677Z,56.16
2018-12-07T12:39:00.019Z,56.58
2018-12-07T12:41:28.281Z,56.29
2018-12-07T12:43:56.437Z,56.67
2018-12-07T12:46:24.609Z,56.86
2018-12-07T12:48:52.925Z,56.09
2018-12-07T12:51:21.082Z,56.41
2018-12-07T12:53:49.221Z,56.06
2018-12-07T12:56:17.393Z,55.92
2018-12-07T12:58:45.809Z,55.90
2018-12-07T13:01:14.009Z,55.87
2018-12-07T13:03:42.245Z,55.35
2018-12-07T13:06:10.533Z,55.96
2018-12-07T13:08:38.761Z,56.23
2018-12-07T13:11:07.029Z,56.06
2018-12-07T13:13:35.184Z,56.14
2018-12-07T13:16:03.346Z,57.02
2018-12-07T13:18:31.625Z,57.35
2018-12-07T13:20:59.900Z,57.96
2018-12-07T13:23:28.149Z,58.07
2018-12-07T13:25:56.448Z,58.07
2018-12-07T13:28:24.724Z,57.82
2018-12-07T13:30:52.929Z,57.82
2018-12-07T13:33:21.169Z,58.47
2018-12-07T13:35:49.444Z,57.92
2018-12-07T13:38:17.621Z,58.54
2018-12-07T13:40:45.998Z,58.59
2018-12-07T13:43:14.410Z,58.50
2018-12-07T13:45:42.801Z,58.16
2018-12-07T13:48:11.218Z,57.62
2018-12-07T13:50:42.340Z,57.78
2018-12-07T13:53:11.726Z,57.43
2018-12-07T13:55:40.349Z,57.70
2018-12-07T13:58:09.014Z,56.95
2018-12-07T14:00:37.224Z,56.80
2018-12-07T14:03:05.938Z,56.78
2018-12-07T14:05:34.449Z,56.81
2018-12-07T14:08:02.820Z,56.97
2018-12-07T14:10:32.453Z,57.00
2018-12-07T14:13:00.856Z,57.00
2018-12-07T14:15:29.187Z,56.43
2018-12-07T14:17:58.280Z,56.50
2018-12-07T14:20:26.700Z,56.17
2018-12-07T14:22:55.594Z,56.18
2018-12-07T14:25:23.960Z,56.33
2018-12-07T14:27:52.421Z,56.07
2018-12-07T14:30:20.812Z,56.64
2018-12-07T14:32:49.251Z,56.42
2018-12-07T14:35:17.983Z,55.90
2018-12-07T14:37:46.318Z,56.50
2018-12-07T14:40:15.220Z,55.91
2018-12-07T14:42:43.523Z,56.10
2018-12-07T14:45:12.145Z,56.19
2018-12-07T14:47:40.553Z,56.32
2018-12-07T14:50:09.236Z,56.37
2018-12-07T14:52:37.533Z,56.48
2018-12-07T14:55:06.586Z,56.38
2018-12-07T14:57:34.885Z,55.94
2018-12-07T15:00:03.597Z,55.92
2018-12-07T15:02:32.231Z,55.89
2018-12-07T15:05:00.540Z,55.69
2018-12-07T15:07:28.715Z,55.25
2018-12-07T15:09:56.908Z,55.30
2018-12-07T15:12:25.241Z,54.93
2018-12-07T15:14:53.865Z,54.56
2018-12-07T15:17:22.040Z,55.17
2018-12-07T15:19:50.496Z,54.48
2018-12-07T15:22:18.920Z,54.74
2018-12-07T15:24:47.278Z,54.43
2018-12-07T15:27:15.656Z,54.13
2018-12-07T15:29:44.282Z,54.57
2018-12-07T15:32:12.669Z,53.92
2018-12-07T15:34:41.620Z,52.86
2018-12-07T15:37:10.109Z,52.84
2018-12-07T15:39:38.622Z,52.89
2018-12-07T15:42:07.120Z,53.57
2018-12-07T15:44:35.756Z,52.67
2018-12-07T15:47:04.301Z,52.71
2018-12-07T15:49:32.517Z,52.73
2018-12-07T15:52:01.215Z,53.04
2018-12-07T15:54:29.593Z,52.83
2018-12-07T15:56:58.189Z,52.51
2018-12-07T15:59:34.249Z,52.67
2018-12-07T16:01:56.926Z,52.34
2018-12-07T16:04:25.117Z,52.42
2018-12-07T16:06:53.656Z,52.69
2018-12-07T16:09:22.008Z,52.46
2018-12-07T16:11:50.411Z,52.55
2018-12-07T16:14:18.719Z,52.52
2018-12-07T16:16:47.143Z,52.68
2018-12-07T16:19:15.656Z,52.64
2018-12-07T16:21:44.136Z,52.31
2018-12-07T16:24:12.397Z,52.59
2018-12-07T16:26:40.552Z,52.95
2018-12-07T16:29:08.816Z,53.18
2018-12-07T16:31:37.260Z,52.86
2018-12-07T16:34:05.715Z,52.79
2018-12-07T16:36:34.181Z,52.55
2018-12-07T16:39:02.413Z,52.84
2018-12-07T16:41:30.680Z,52.41
2018-12-07T16:43:59.150Z,52.43
2018-12-07T16:46:27.690Z,52.23
2018-12-07T16:48:56.013Z,51.68
2018-12-07T16:51:24.774Z,51.79
2018-12-07T16:53:53.148Z,52.40
2018-12-07T16:56:21.743Z,51.34
2018-12-07T16:58:50.153Z,51.25
2018-12-07T17:01:18.596Z,50.70
2018-12-07T17:03:46.903Z,51.25
2018-12-07T17:06:15.282Z,50.66
2018-12-07T17:08:44.788Z,51.12
2018-12-07T17:11:13.541Z,51.20
2018-12-07T17:13:41.941Z,50.82
2018-12-07T17:16:10.635Z,50.43
2018-12-07T17:18:38.841Z,51.21
2018-12-07T17:21:07.334Z,51.68
2018-12-07T17:23:35.839Z,51.43
2018-12-07T17:26:04.240Z,52.17
2018-12-07T17:28:32.510Z,52.53
2018-12-07T17:31:00.972Z,52.76
2018-12-07T17:33:29.472Z,52.92
2018-12-07T17:35:57.768Z,52.38
2018-12-07T17:38:26.218Z,53.11
2018-12-07T17:40:54.647Z,52.67
2018-12-07T17:43:23.132Z,52.62
2018-12-07T17:45:51.648Z,52.81
2018-12-07T17:48:20.117Z,52.78
2018-12-07T17:50:48.624Z,52.73
2018-12-07T17:53:17.193Z,53.27
2018-12-07T17:55:45.605Z,52.57
2018-12-07T17:58:14.142Z,53.07
2018-12-07T18:00:42.620Z,53.07
2018-12-07T18:03:10.926Z,53.08
2018-12-07T18:05:39.254Z,54.01
2018-12-07T18:08:07.773Z,54.27
2018-12-07T18:10:36.508Z,54.04
2018-12-07T18:13:04.902Z,54.47
2018-12-07T18:15:34.172Z,54.42
2018-12-07T18:18:02.397Z,54.91
2018-12-07T18:20:30.875Z,55.21
2018-12-07T18:22:59.200Z,55.33
2018-12-07T18:25:27.673Z,55.18
2018-12-07T18:27:56.162Z,55.75
2018-12-07T18:30:24.616Z,55.58
2018-12-07T18:32:52.867Z,56.36
2018-12-07T18:35:21.314Z,56.68
2018-12-07T18:37:49.503Z,56.58
2018-12-07T18:40:17.803Z,57.01
2018-12-07T18:42:46.079Z,56.63
2018-12-07T18:45:15.473Z,57.29
2018-12-07T18:47:43.851Z,57.13
2018-12-07T18:50:12.199Z,57.65
2018-12-07T18:52:40.493Z,57.80
2018-12-07T18:55:10.306Z,57.55
2018-12-07T18:57:38.875Z,58.26
2018-12-07T19:00:08.527Z,58.52
2018-12-07T19:02:37.102Z,58.68
2018-12-07T19:05:06.310Z,58.29
2018-12-07T19:07:34.607Z,58.34
2018-12-07T19:10:03.156Z,58.71
2018-12-07T19:12:31.511Z,58.80
2018-12-07T19:14:59.745Z,58.91
2018-12-07T19:17:28.265Z,59.62
2018-12-07T19:19:56.577Z,59.44
2018-12-07T19:22:24.786Z,59.82
2018-12-07T19:24:53.273Z,59.31
2018-12-07T19:27:21.617Z,59.30
2018-12-07T19:29:50.133Z,59.74
2018-12-07T19:32:18.771Z,59.56
2018-12-07T19:34:48.139Z,60.08
2018-12-07T19:37:16.548Z,60.01
2018-12-07T19:39:45.266Z,60.28
2018-12-07T19:42:13.727Z,60.74
2018-12-07T19:44:42.449Z,60.99
2018-12-07T19:47:10.828Z,60.72
2018-12-07T19:49:39.416Z,60.71
2018-12-07T19:52:08.117Z,61.00
2018-12-07T19:54:36.610Z,61.52
2018-12-07T19:57:05.162Z,60.91
2018-12-07T19:59:33.514Z,61.45
2018-12-07T20:02:01.764Z,60.75
2018-12-07T20:04:30.191Z,60.73
2018-12-07T20:06:58.661Z,59.98
2018-12-07T20:09:26.928Z,60.17
2018-12-07T20:11:55.216Z,59.48
2018-12-07T20:14:23.950Z,59.93
2018-12-07T20:16:52.157Z,59.91
2018-12-07T20:19:20.379Z,58.95
2018-12-07T20:21:48.684Z,58.66
2018-12-07T20:24:17.047Z,58.87
2018-12-07T20:26:45.333Z,59.15
2018-12-07T20:29:13.570Z,58.38
2018-12-07T20:31:42.466Z,59.57
2018-12-07T20:34:11.222Z,59.65
2018-12-07T20:36:39.728Z,59.24
2018-12-07T20:39:08.385Z,58.71
2018-12-07T20:41:36.689Z,59.39
2018-12-07T20:44:05.303Z,59.60
2018-12-07T20:46:33.589Z,59.14
2018-12-07T20:49:02.029Z,58.67
2018-12-07T20:51:30.435Z,58.79
2018-12-07T20:53:58.680Z,58.32
2018-12-07T20:56:27.288Z,58.38
2018-12-07T20:58:56.037Z,58.03
2018-12-07T21:01:24.507Z,57.16
2018-12-07T21:04:15.183Z,56.67
2018-12-07T21:07:58.323Z,54.99
2018-12-07T21:10:48.672Z,55.07
2018-12-07T21:14:28.905Z,53.91
2018-12-07T21:17:07.755Z,54.97
2018-12-07T21:19:38.079Z,54.43
2018-12-07T21:22:06.753Z,54.59
2018-12-07T21:24:35.258Z,54.03
2018-12-07T21:27:03.915Z,53.72
2018-12-07T21:29:32.388Z,53.32
2018-12-07T21:32:02.018Z,52.69
2018-12-07T21:34:41.842Z,52.44
2018-12-07T21:37:10.466Z,51.82
2018-12-07T21:39:46.065Z,52.31
2018-12-07T21:42:15.131Z,52.62
2018-12-07T21:44:43.518Z,52.55
2018-12-07T21:47:11.856Z,52.28
2018-12-07T21:49:51.673Z,51.77
2018-12-07T21:52:28.536Z,51.40
2018-12-07T21:54:56.999Z,51.70
2018-12-07T21:57:25.349Z,50.91
2018-12-07T21:59:53.924Z,50.62
2018-12-07T22:02:22.229Z,49.42
2018-12-07T22:04:50.540Z,49.91
2018-12-07T22:07:19.000Z,50.26
2018-12-07T22:09:47.487Z,50.06
2018-12-07T22:12:15.722Z,48.81
2018-12-07T22:14:44.078Z,48.27
2018-12-07T22:17:12.294Z,48.81
2018-12-07T22:19:40.544Z,48.51
2018-12-07T22:22:08.886Z,49.00
2018-12-07T22:24:37.272Z,48.41
2018-12-07T22:27:05.468Z,48.11
2018-12-07T22:29:33.937Z,48.27
2018-12-07T22:32:02.377Z,48.28
2018-12-07T22:34:30.911Z,48.68
2018-12-07T22:36:59.490Z,48.20
2018-12-07T22:39:28.152Z,48.03
2018-12-07T22:41:56.539Z,48.65
2018-12-07T22:44:24.847Z,48.63
2018-12-07T22:46:53.146Z,48.47
2018-12-07T22:49:21.310Z,47.62
2018-12-07T22:51:49.588Z,47.90
2018-12-07T22:54:17.754Z,47.83
2018-12-07T22:56:45.984Z,48.24
2018-12-07T22:59:14.221Z,48.38
2018-12-07T23:01:42.501Z,48.99
2018-12-07T23:04:10.861Z,49.50
2018-12-07T23:06:39.048Z,49.51
2018-12-07T23:09:08.169Z,50.07
2018-12-07T23:11:36.321Z,50.77
2018-12-07T23:14:04.701Z,50.37
2018-12-07T23:16:33.179Z,49.93
2018-12-07T23:19:01.420Z,49.91
2018-12-07T23:21:29.632Z,50.17
2018-12-07T23:23:57.772Z,49.73
2018-12-07T23:26:25.982Z,49.78
2018-12-07T23:28:54.252Z,50.17
2018-12-07T23:31:22.544Z,49.48
2018-12-07T23:33:51.138Z,49.24
2018-12-07T23:36:19.417Z,49.15
2018-12-07T23:38:47.565Z,49.23
2018-12-07T23:41:15.796Z,49.50
2018-12-07T23:43:43.953Z,48.90
2018-12-07T23:46:12.325Z,49.16
2018-12-07T23:48:40.491Z,48.92
2018-12-07T23:51:08.857Z,49.36
2018-12-07T23:53:37.013Z,49.28
2018-12-07T23:56:05.324Z,49.26
2018-12-07T23:58:33.480Z,49.54
